Latest Coastal Weather Observations for Melbourne (Olympic Park)

IDV60701

Issued at 6:01 am EST Friday 6 May 2016 (issued every 10 minutes, with the page automatically refreshed every 10 minutes)

About coastal observations | Map of coastal stations | Coastal observations for VIC | Marine services | Other Formats
Station Details ID: 086338 Name: MELBOURNE (OLYMPIC PARK) Lat: -37.83 Lon: 144.98 Height: 7.53 m
Data from the previous 72 hours. | See also: Recent months at Melbourne (Olympic Park)
Date/Time
EST
Temp

°C
Wind Pressure Rain
since 9am
mm
Weather Cloud Vis
km
Sea
Height
m
Swell
Dir
 
Speed
knots
Gust
knots
hPa Trend Height
m
Period
s
Dir
06/06:00am 16.1 N 10 16 1014.0 - 0.0 - - 57 - - - -
06/05:30am 16.2 N 9 15 1014.0 - 0.0 - - - - - - -
06/05:00am 16.3 N 12 23 1013.7 - 0.0 - - - - - - -
06/04:30am 16.4 N 9 16 1013.8 - 0.0 - - - - - - -
06/04:00am 16.6 N 13 20 1013.6 - 0.0 - - - - - - -
06/03:30am 16.6 N 13 18 1013.6 - 0.0 - - - - - - -
06/03:00am 16.8 N 11 18 1013.9 - 0.0 - - - - - - -
06/02:30am 16.7 N 9 15 1014.1 - 0.0 - - - - - - -
06/02:00am 17.1 N 8 13 1013.9 - 0.0 - - - - - - -
06/01:30am 17.0 N 8 14 1014.0 - 0.0 - - - - - - -
06/01:00am 17.5 N 11 17 1013.9 - 0.0 - - - - - - -
06/12:30am 17.6 N 9 15 1013.7 - 0.0 - - - - - - -
06/12:00am 17.6 N 9 13 1013.9 - 0.0 - - - - - - -
 
Date/Time
EST
Temp

°C
Wind Pressure Rain
since 9am
mm
Weather Cloud Vis
km
Sea
Height
m
Swell
Dir
 
Speed
knots
Gust
knots
hPa Trend Height
m
Period
s
Dir
05/11:30pm 17.8 N 10 15 1013.9 - 0.0 - - - - - - -
05/11:00pm 18.0 NNW 9 16 1013.8 - 0.0 - - - - - - -
05/10:30pm 17.8 N 7 13 1013.8 - 0.0 - - - - - - -
05/10:00pm 17.6 NNE 6 10 1013.8 - 0.0 - - - - - - -
05/09:30pm 18.1 N 7 11 1014.0 - 0.0 - - - - - - -
05/09:00pm 18.6 N 7 11 1013.8 - 0.0 - - - - - - -
05/08:30pm 18.0 NNE 4 7 1014.0 - 0.0 - - - - - - -
05/08:00pm 18.0 NNE 6 8 1013.8 - 0.0 - - - - - - -
05/07:30pm 18.6 N 4 7 1013.7 - 0.0 - - - - - - -
05/07:00pm 18.8 N 6 9 1013.6 - 0.0 - - - - - - -
05/06:30pm 19.2 N 8 12 1013.3 - 0.0 - - - - - - -
05/06:00pm 19.0 N 8 12 1013.2 - 0.0 - - - - - - -
05/05:30pm 19.4 N 11 16 1013.0 - 0.0 - - - - - - -
05/05:00pm 19.7 N 11 18 1012.8 - 0.0 - - - - - - -
05/04:30pm 20.3 N 11 16 1012.8 - 0.0 - - - - - - -
05/04:00pm 19.9 N 12 25 1013.0 - 0.0 - - - - - - -
05/03:30pm 19.9 N 11 20 1012.8 - 0.0 - - - - - - -
05/03:00pm 20.0 N 11 17 1013.0 - 0.0 - - 10 - - - -
05/02:30pm 19.5 N 14 23 1013.0 - 0.0 - - - - - - -
05/02:26pm 19.5 N 15 27 1014.0 - 0.0 - - 10 - - - -
05/02:00pm 19.2 N 15 24 1013.3 - 0.0 - - - - - - -
05/01:30pm 19.3 N 15 25 1013.6 - 0.0 - - - - - - -
05/01:00pm 19.4 NNW 17 29 1013.7 - 0.0 - - - - - - -
05/12:31pm 19.8 NNW 16 26 1014.2 - 0.0 - - - - - - -
05/12:30pm 19.6 NNW 17 26 1014.2 - 0.0 - - - - - - -
05/12:01pm 19.1 N 16 29 1014.6 - 0.0 - - - - - - -
05/12:00pm 19.3 N 15 24 1014.6 - 0.0 - - - - - - -
05/11:34am 19.6 N 15 28 1015.2 - 0.0 - - - - - - -
05/11:30am 19.9 N 15 24 1015.3 - 0.0 - - - - - - -
05/11:00am 19.3 N 11 21 1015.8 - 0.0 - - - - - - -
05/10:45am 18.3 N 12 19 1016.8 - 0.0 - - - - - - -
05/10:30am 18.6 N 11 17 1016.1 - 0.0 - - - - - - -
05/10:00am 17.8 N 9 14 1016.4 - 0.0 - - - - - - -
05/09:30am 16.1 N 12 19 1016.7 - 0.0 - - - - - - -
05/09:00am 16.1 N 11 18 1016.7 - 0.0 - - - - - - -
05/08:30am 15.0 N 11 17 1016.7 - 0.0 - - - - - - -
05/08:00am 14.7 N 9 15 1016.6 - 0.0 - - - - - - -
05/07:30am 14.7 N 11 16 1016.5 - 0.0 - - - - - - -
05/07:00am 14.8 N 10 16 1016.3 - 0.0 - - - - - - -
05/06:30am 14.7 N 9 14 1016.3 - 0.0 - - - - - - -
05/06:00am 14.7 N 8 13 1016.2 - 0.0 - - - - - - -
05/05:30am 14.7 N 8 14 1016.0 - 0.0 - - - - - - -
05/05:00am 14.4 N 7 13 1015.8 - 0.0 - - - - - - -
05/04:30am 14.4 N 7 11 1015.9 - 0.0 - - - - - - -
05/04:00am 14.1 N 8 12 1016.0 - 0.0 - - - - - - -
05/03:30am 13.8 N 7 13 1016.2 - 0.0 - - - - - - -
05/03:00am 13.6 N 5 8 1016.3 - 0.0 - - - - - - -
05/02:30am 13.8 N 6 10 1016.6 - 0.0 - - - - - - -
05/02:00am 13.8 N 6 10 1016.5 - 0.0 - - - - - - -
05/01:30am 14.0 N 9 13 1016.5 - 0.0 - - - - - - -
05/01:00am 14.1 N 7 13 1016.6 - 0.0 - - - - - - -
05/12:30am 14.2 N 9 13 1016.6 - 0.0 - - - - - - -
05/12:00am 14.5 N 9 14 1016.8 - 0.0 - - - - - - -
 
Date/Time
EST
Temp

°C
Wind Pressure Rain
since 9am
mm
Weather Cloud Vis
km
Sea
Height
m
Swell
Dir
 
Speed
knots
Gust
knots
hPa Trend Height
m
Period
s
Dir
04/11:30pm 14.5 N 9 15 1016.8 - 0.0 - - - - - - -
04/11:00pm 15.0 N 9 15 1016.9 - 0.0 - - - - - - -
04/10:30pm 14.9 N 8 11 1017.0 - 0.0 - - - - - - -
04/10:00pm 14.9 N 7 11 1017.1 - 0.0 - - - - - - -
04/09:30pm 15.0 N 7 12 1017.0 - 0.0 - - - - - - -
04/09:00pm 15.1 N 9 14 1017.0 - 0.0 - - - - - - -
04/08:30pm 15.2 N 8 14 1016.8 - 0.0 - - - - - - -
04/08:00pm 15.4 N 9 13 1016.5 - 0.0 - - - - - - -
04/07:30pm 15.5 N 8 13 1016.4 - 0.0 - - - - - - -
04/07:00pm 15.4 N 9 14 1016.0 - 0.0 - - - - - - -
04/06:30pm 15.7 N 10 14 1015.8 - 0.0 - - - - - - -
04/06:00pm 15.8 N 10 15 1015.4 - 0.0 - - - - - - -
04/05:30pm 16.1 N 9 12 1015.1 - 0.0 - - - - - - -
04/05:00pm 16.4 NNW 9 13 1014.8 - 0.0 - - - - - - -
04/04:30pm 16.5 N 9 16 1014.7 - 0.0 - - - - - - -
04/04:00pm 16.6 NNW 9 18 1014.6 - 0.0 - - - - - - -
04/03:30pm 16.7 NNW 9 14 1014.6 - 0.0 - - - - - - -
04/03:00pm 16.9 NNW 9 17 1014.4 - 0.0 - - - - - - -
04/02:30pm 17.0 NNW 9 18 1014.3 - 0.0 - - - - - - -
04/02:00pm 17.5 NNW 10 16 1014.3 - 0.0 - - - - - - -
04/01:30pm 17.1 NNW 9 18 1014.3 - 0.0 - - - - - - -
04/01:00pm 16.9 NW 7 14 1014.5 - 0.0 - - - - - - -
04/12:30pm 16.5 NNW 9 15 1014.8 - 0.0 - - - - - - -
04/12:00pm 16.3 WNW 8 14 1015.2 - 0.0 - - - - - - -
04/11:30am 15.8 NW 8 16 1015.4 - 0.0 - - - - - - -
04/11:00am 15.9 NNW 6 11 1015.6 - 0.0 - - - - - - -
04/10:30am 15.5 NW 7 12 1015.6 - 0.0 - - - - - - -
04/10:00am 14.7 NNW 6 9 1015.8 - 0.0 - - - - - - -
04/09:30am 13.7 NNW 5 11 1015.8 - 0.0 - - - - - - -
04/09:00am 12.6 NNW 6 8 1015.6 - 0.2 - - - - - - -
04/08:30am 11.5 N 7 10 1015.3 - 0.2 - - - - - - -
04/08:00am 10.8 NNW 6 9 1014.7 - 0.2 - - - - - - -
04/07:30am 10.5 NNW 7 11 1014.4 - 0.2 - - - - - - -
04/07:00am 10.0 NNW 5 7 1013.9 - 0.2 - - - - - - -
04/06:30am 10.3 NW 5 8 1013.5 - 0.2 - - - - - - -
04/06:00am 10.1 NNW 4 6 1013.2 - 0.2 - - - - - - -
04/05:30am 11.3 NW 7 12 1012.8 - 0.2 - - - - - - -
04/05:00am 11.1 NW 7 11 1012.2 - 0.2 - - - - - - -
04/04:30am 11.1 NNW 5 8 1011.9 - 0.2 - - - - - - -
04/04:00am 11.6 NW 6 10 1011.6 - 0.2 - - - - - - -
04/03:30am 12.0 NW 7 14 1011.1 - 0.2 - - - - - - -
04/03:00am 12.2 NW 6 8 1010.7 - 0.2 - - - - - - -
04/02:30am 12.2 NW 6 8 1010.4 - 0.2 - - - - - - -
04/02:00am 12.1 NW 6 11 1010.5 - 0.2 - - - - - - -
04/01:30am 12.5 NW 4 7 1010.2 - 0.2 - - - - - - -
04/01:00am 12.9 NW 5 9 1010.1 - 0.2 - - - - - - -
04/12:30am 13.5 NW 5 10 1009.9 - 0.2 - - - - - - -
04/12:00am 13.8 WNW 7 13 1009.7 - 0.2 Showers - - - - - -
 
Date/Time
EST
Temp

°C
Wind Pressure Rain
since 9am
mm
Weather Cloud Vis
km
Sea
Height
m
Swell
Dir
 
Speed
knots
Gust
knots
hPa Trend Height
m
Period
s
Dir
03/11:30pm 14.0 NW 5 11 1009.2 - 0.2 - - - - - - -
03/11:00pm 13.8 NW 5 9 1008.9 - 0.2 - - - - - - -
03/10:30pm 14.3 NW 7 14 1008.7 - 0.2 - - - - - - -
03/10:00pm 14.5 WNW 6 11 1008.3 - 0.2 - - - - - - -
03/09:30pm 14.8 NW 7 14 1008.0 - 0.2 - - - - - - -
03/09:00pm 14.8 NW 6 10 1007.6 - 0.2 - - - - - - -
03/08:30pm 14.8 NW 6 12 1007.3 - 0.2 - - - - - - -
03/08:00pm 15.0 WNW 6 12 1006.8 - 0.2 - - - - - - -
03/07:30pm 15.0 WNW 5 10 1006.5 - 0.2 - - - - - - -
03/07:00pm 14.6 W 4 9 1006.2 - 0.2 - - - - - - -
03/06:30pm 14.9 SW 2 5 1005.5 - 0.2 - - - - - - -
03/06:00pm 14.9 WSW 5 11 1004.5 - 0.2 Rain - - - - - -
03/05:30pm 14.8 WNW 6 11 1003.7 - 0.2 - - - - - - -
03/05:00pm 14.3 WNW 7 15 1003.1 - 0.2 - - - - - - -
03/04:30pm 14.7 W 10 20 1002.3 - 0.0 - - - - - - -
03/04:12pm 16.8 W 15 29 1002.8 - 0.0 - - 10 - - - -
03/04:00pm 18.0 NNW 9 14 1000.9 - 0.0 - - - - - - -
03/03:30pm 17.9 NNW 15 20 1000.3 - 0.0 - - - - - - -
03/03:00pm 18.8 NNW 16 26 999.8 - 0.0 - - 10 - - - -
03/02:30pm 19.2 NNW 16 27 999.4 - 0.0 - - - - - - -
03/02:00pm 19.2 NNW 17 28 999.4 - 0.0 - - - - - - -
03/01:30pm 19.2 NNW 17 27 999.5 - 0.0 - - - - - - -
03/01:00pm 19.0 NNW 19 32 999.7 - 0.0 - - - - - - -
03/12:30pm 19.1 NNW 17 27 999.6 - 0.0 - - - - - - -
03/12:00pm 19.8 NNW 17 29 1000.0 - 0.0 - - - - - - -
03/11:30am 19.2 NNW 20 32 1000.7 - 0.0 - - - - - - -
03/11:00am 18.9 N 17 29 1001.1 - 0.0 - - - - - - -
03/10:30am 18.6 NNW 18 30 1001.6 - 0.0 - - - - - - -
03/10:00am 18.4 N 17 28 1002.1 - 0.0 - - - - - - -
03/09:33am 17.9 N 16 26 1002.1 - 0.0 - - - - - - -
03/09:32am 17.9 N 16 26 1003.0 - 0.0 - - 10 - - - -
03/09:30am 17.7 N 17 26 1002.1 - 0.0 - - - - - - -
03/09:11am 17.1 N 15 25 1002.5 - 0.0 - - - - - - -
03/09:10am 17.1 N 15 25 1003.3 - 0.0 - - 10 - - - -
03/09:00am 16.6 N 11 17 1002.5 - 0.0 - - - - - - -
03/08:30am 16.0 N 15 21 1002.1 - 0.0 - - - - - - -
03/08:00am 15.4 N 13 20 1003.2 - 0.0 - - - - - - -
03/07:30am 15.3 N 15 26 1002.8 - 0.0 - - - - - - -
03/07:00am 15.1 N 14 21 1003.1 - 0.0 - - - - - - -
03/06:30am 15.2 N 14 23 1003.2 - 0.0 - - - - - - -
03/06:16am 15.4 N 15 27 1003.3 - 0.0 - - - - - - -

Other Formats:

Comma delimited format used in spreadsheet applications
http://www.bom.gov.au/fwo/IDV60701/IDV60701.95936.axf

JavaScript Object Notation format (JSON) in row-major order
http://www.bom.gov.au/fwo/IDV60701/IDV60701.95936.json